P Hill, Oregon
Current Conditions -  °F | °C
As of 7:54 PM on Tuesday 21 Oct 2014 (Local Time) from KEUG Reporting Station
Overcast Overcast  
Wind Chill: 59°   Ceiling: 8000
Heat Index: 59°   Visibility: 10mi
Dew Point: 47°   Wind: 9mph
Humidity: 64%   Direction: 180°S
Pressure: 29.93"   Gusts: NA
Location:  43.9516°N, 122.922°W
Report Text: KEUG 220254Z 18008KT 10SM OVC080 15/08 A2993 RMK AO2 SLP135 T01500083 56014
Loading
Personal Weather Stations






























Interactive Weather Map
Tropical Storm Tracking
New forecast layout! Learn more

10-Day Weather Forecast

Advertisements
Track Severe Weather on mobile